X  Lukk Metar værinformasjon om luftfart     ENRY Moss Airport, Rygge
Temperatur
-1°C Temperatur
-2°C Duggpunkt
93% Luftfuktighet



Vind
3 M/S
7 MPT
11 KM/T
6 KNP



210°
SSV
Nåværende forhold

Snø Grains Snø Grains
Trykk 1014.92 (hPa) - 29.97 (inHg)
Sikt 0 (mil) - 0 (km)
Flyplass
Flyplass-kode ENRY

Plassering: Moss Airport, Rygge
Avstand: 12 (km)

Metar:
ENRY 180020Z AUTO 21006KT 1900NDV SG VV011 M01/M02 Q1015

Tid: 18-01-2021 01:20 CET